Station Historical Data
Daily Summary for May 26, 2012 Units:  English    Metric   Both
« Previous Day
Next Day »
Daily Weekly Monthly Yearly Custom
  High: Low: Average:
Temperature: 90.1 °F 63.5 °F 77.6 °F
Dew Point: 73.2 °F 61.8 °F 66.7 °F
Humidity: 94% 43% 72%
Wind Speed: 7.0mph 0.0mph 1.1mph
Wind Gust: 10.0mph - -
Wind- - SSW
Pressure: 30.11 in 30.00 in -
Precipitation: 0.00 in    
Historical Graphs
 
 
Tabular Data for May 26, 2012
Time Temperature Dew Point Pressure Wind Wind Speed Wind Gust Humidity Rainfall Rate (Hourly) Conditions
00:00 73.7 °F 65.3 °F 30.02 in Calm   1.0 mph 75% 0.00 in
00:05 73.3 °F 65.3 °F 30.02 in Calm   1.0 mph 76% 0.00 in
00:10 73.1 °F 65.1 °F 30.02 in SE 1.0 mph 1.0 mph 76% 0.00 in
00:11 73.1 °F 65.1 °F 30.02 in SE 1.0 mph 1.0 mph 76% 0.00 in
00:12 73.0 °F 65.4 °F 30.02 in SE 1.0 mph 1.0 mph 77% 0.00 in
00:17 72.9 °F 65.3 °F 30.03 in Calm     77% 0.00 in
00:22 72.2 °F 64.6 °F 30.03 in Calm     77% 0.00 in
00:27 71.3 °F 64.5 °F 30.03 in Calm     79% 0.00 in
00:32 70.5 °F 64.0 °F 30.03 in Calm     80% 0.00 in
00:37 70.0 °F 64.6 °F 30.03 in Calm     83% 0.00 in
00:42 69.7 °F 64.3 °F 30.03 in Calm     83% 0.00 in
00:47 70.3 °F 65.2 °F 30.03 in SE 1.0 mph 1.0 mph 84% 0.00 in
00:52 71.1 °F 65.3 °F 30.03 in Calm   1.0 mph 82% 0.00 in
00:57 71.3 °F 65.2 °F 30.03 in Calm   1.0 mph 81% 0.00 in
01:02 71.3 °F 65.2 °F 30.03 in Calm     81% 0.00 in
01:07 70.7 °F 64.9 °F 30.03 in Calm     82% 0.00 in
01:12 70.1 °F 64.7 °F 30.03 in Calm     83% 0.00 in
01:17 69.8 °F 64.8 °F 30.03 in Calm     84% 0.00 in
01:22 69.6 °F 64.6 °F 30.03 in Calm     84% 0.00 in
01:27 69.4 °F 65.0 °F 30.03 in Calm   1.0 mph 86% 0.00 in
01:32 69.4 °F 65.0 °F 30.03 in Calm   1.0 mph 86% 0.00 in
01:37 69.2 °F 64.5 °F 30.03 in Calm   1.0 mph 85% 0.00 in
01:42 68.8 °F 64.4 °F 30.03 in Calm     86% 0.00 in
01:47 68.4 °F 64.4 °F 30.03 in Calm     87% 0.00 in
01:52 68.1 °F 64.4 °F 30.03 in Calm     88% 0.00 in
01:57 68.2 °F 64.5 °F 30.03 in Calm     88% 0.00 in
02:02 68.3 °F 64.6 °F 30.03 in Calm     88% 0.00 in
02:07 68.3 °F 64.6 °F 30.03 in Calm     88% 0.00 in
02:12 68.3 °F 64.9 °F 30.03 in Calm   1.0 mph 89% 0.00 in
02:17 68.6 °F 64.9 °F 30.03 in Calm     88% 0.00 in
02:22 68.4 °F 64.4 °F 30.03 in Calm     87% 0.00 in
02:28 68.1 °F 64.4 °F 30.03 in SE 1.0 mph 1.0 mph 88% 0.00 in
02:33 67.9 °F 64.5 °F 30.03 in ESE 1.0 mph 1.0 mph 89% 0.00 in
02:38 67.9 °F 64.5 °F 30.03 in ESE 1.0 mph 1.0 mph 89% 0.00 in
02:43 68.0 °F 64.6 °F 30.03 in Calm     89% 0.00 in
02:48 67.7 °F 64.3 °F 30.03 in Calm     89% 0.00 in
02:53 67.3 °F 64.3 °F 30.03 in ESE 1.0 mph 1.0 mph 90% 0.00 in
02:58 67.0 °F 64.0 °F 30.03 in Calm     90% 0.00 in
03:03 66.4 °F 63.4 °F 30.03 in ESE 1.0 mph 1.0 mph 90% 0.00 in
03:08 66.0 °F 63.3 °F 30.03 in Calm   2.0 mph 91% 0.00 in
03:13 65.6 °F 62.9 °F 30.03 in Calm     91% 0.00 in
03:18 65.4 °F 63.0 °F 30.04 in Calm     92% 0.00 in
03:23 65.6 °F 63.5 °F 30.04 in East 1.0 mph 1.0 mph 93% 0.00 in
03:28 65.8 °F 63.7 °F 30.04 in Calm   1.0 mph 93% 0.00 in
03:33 65.9 °F 63.8 °F 30.04 in Calm     93% 0.00 in
03:38 65.7 °F 63.3 °F 30.04 in Calm     92% 0.00 in
03:43 65.5 °F 63.4 °F 30.04 in Calm     93% 0.00 in
03:48 65.5 °F 63.4 °F 30.04 in Calm     93% 0.00 in
03:53 65.8 °F 63.7 °F 30.04 in Calm   1.0 mph 93% 0.00 in
03:58 66.2 °F 64.1 °F 30.04 in Calm   1.0 mph 93% 0.00 in
04:03 66.5 °F 64.4 °F 30.04 in Calm   1.0 mph 93% 0.00 in
04:08 66.6 °F 64.2 °F 30.04 in Calm   1.0 mph 92% 0.00 in
04:13 66.2 °F 63.8 °F 30.04 in Calm   1.0 mph 92% 0.00 in
04:18 65.9 °F 63.8 °F 30.05 in ENE 1.0 mph 2.0 mph 93% 0.00 in
04:23 65.8 °F 63.4 °F 30.05 in Calm     92% 0.00 in
04:28 65.6 °F 63.5 °F 30.05 in Calm     93% 0.00 in
04:33 65.5 °F 63.4 °F 30.05 in Calm     93% 0.00 in
04:38 65.4 °F 63.3 °F 30.05 in Calm     93% 0.00 in
04:43 65.3 °F 63.2 °F 30.06 in Calm     93% 0.00 in
04:48 65.2 °F 63.1 °F 30.06 in Calm   1.0 mph 93% 0.00 in
04:53 65.0 °F 62.9 °F 30.06 in ENE 1.0 mph 1.0 mph 93% 0.00 in
04:58 65.1 °F 63.0 °F 30.06 in ENE 1.0 mph 2.0 mph 93% 0.00 in
05:03 65.6 °F 63.5 °F 30.06 in ENE 1.0 mph 2.0 mph 93% 0.00 in
05:08 65.6 °F 63.5 °F 30.06 in Calm   1.0 mph 93% 0.00 in
05:13 65.2 °F 63.1 °F 30.07 in Calm     93% 0.00 in
05:18 64.8 °F 62.7 °F 30.07 in Calm     93% 0.00 in
05:24 64.6 °F 62.5 °F 30.07 in Calm     93% 0.00 in
05:29 64.4 °F 62.3 °F 30.07 in Calm     93% 0.00 in
05:34 64.2 °F 62.1 °F 30.07 in Calm     93% 0.00 in
05:38 64.0 °F 61.9 °F 30.07 in Calm     93% 0.00 in
05:43 64.2 °F 62.4 °F 30.08 in Calm     94% 0.00 in
05:49 64.4 °F 62.6 °F 30.08 in Calm     94% 0.00 in
05:54 64.4 °F 62.6 °F 30.08 in Calm     94% 0.00 in
05:59 64.2 °F 62.4 °F 30.08 in Calm     94% 0.00 in
06:04 64.1 °F 62.3 °F 30.08 in Calm     94% 0.00 in
06:09 64.3 °F 62.5 °F 30.08 in Calm     94% 0.00 in
06:14 64.3 °F 62.5 °F 30.08 in Calm     94% 0.00 in
06:19 64.2 °F 62.4 °F 30.08 in Calm     94% 0.00 in
06:24 64.1 °F 62.3 °F 30.08 in ENE 1.0 mph 1.0 mph 94% 0.00 in
06:29 63.7 °F 62.0 °F 30.08 in ENE 1.0 mph 1.0 mph 94% 0.00 in
06:34 63.5 °F 61.8 °F 30.08 in Calm     94% 0.00 in
06:39 63.5 °F 61.8 °F 30.08 in Calm     94% 0.00 in
06:44 63.8 °F 62.0 °F 30.09 in Calm     94% 0.00 in
06:49 63.8 °F 62.0 °F 30.09 in Calm   1.0 mph 94% 0.00 in
06:54 63.9 °F 62.1 °F 30.09 in Calm     94% 0.00 in
06:59 64.4 °F 62.6 °F 30.09 in Calm   1.0 mph 94% 0.00 in
07:05 64.7 °F 62.9 °F 30.09 in Calm     94% 0.00 in
07:10 64.7 °F 62.9 °F 30.09 in Calm     94% 0.00 in
07:15 64.9 °F 63.1 °F 30.09 in Calm     94% 0.00 in
07:20 65.3 °F 63.5 °F 30.09 in Calm     94% 0.00 in
07:25 66.2 °F 64.4 °F 30.09 in Calm     94% 0.00 in
07:30 66.9 °F 65.1 °F 30.09 in Calm     94% 0.00 in
07:35 67.7 °F 65.9 °F 30.09 in Calm     94% 0.00 in
07:40 68.6 °F 66.5 °F 30.09 in Calm   1.0 mph 93% 0.00 in
07:45 69.5 °F 67.4 °F 30.09 in Calm   1.0 mph 93% 0.00 in
07:50 69.9 °F 67.5 °F 30.09 in Calm   2.0 mph 92% 0.00 in
07:55 70.4 °F 67.7 °F 30.09 in East 2.0 mph 3.0 mph 91% 0.00 in
08:00 70.6 °F 67.5 °F 30.09 in East 2.0 mph 3.0 mph 90% 0.00 in
08:05 71.2 °F 68.4 °F 30.09 in Calm   1.0 mph 91% 0.00 in
08:10 71.9 °F 68.5 °F 30.09 in ESE 1.0 mph 2.0 mph 89% 0.00 in
08:15 72.3 °F 68.9 °F 30.09 in Calm   2.0 mph 89% 0.00 in
08:20 72.8 °F 69.0 °F 30.09 in Calm   1.0 mph 88% 0.00 in
08:25 73.3 °F 69.2 °F 30.10 in Calm   2.0 mph 87% 0.00 in
08:31 73.7 °F 68.9 °F 30.10 in East 2.0 mph 2.0 mph 85% 0.00 in
08:36 73.8 °F 69.3 °F 30.10 in Calm   2.0 mph 86% 0.00 in
08:41 74.1 °F 69.3 °F 30.10 in ESE 1.0 mph 2.0 mph 85% 0.00 in
08:46 74.5 °F 69.3 °F 30.10 in ESE 1.0 mph 1.0 mph 84% 0.00 in
08:51 75.0 °F 69.5 °F 30.10 in ESE 2.0 mph 2.0 mph 83% 0.00 in
08:56 75.3 °F 69.8 °F 30.10 in ESE 1.0 mph 2.0 mph 83% 0.00 in
09:01 75.9 °F 70.0 °F 30.11 in Calm   2.0 mph 82% 0.00 in
09:06 76.6 °F 70.0 °F 30.11 in SE 1.0 mph 2.0 mph 80% 0.00 in
09:11 77.1 °F 70.1 °F 30.11 in SSE 2.0 mph 2.0 mph 79% 0.00 in
09:16 77.7 °F 70.3 °F 30.11 in ESE 3.0 mph 3.0 mph 78% 0.00 in
09:21 77.6 °F 69.8 °F 30.11 in SE 2.0 mph 5.0 mph 77% 0.00 in
09:24 77.7 °F 69.9 °F 30.11 in SE 1.0 mph 4.0 mph 77% 0.00 in
09:29 78.2 °F 68.8 °F 30.11 in SSE 4.0 mph 5.0 mph 73% 0.00 in
09:34 78.7 °F 69.3 °F 30.11 in East 3.0 mph 3.0 mph 73% 0.00 in
09:39 78.8 °F 70.2 °F 30.11 in SE 3.0 mph 4.0 mph 75% 0.00 in
09:44 79.0 °F 68.8 °F 30.11 in SE 3.0 mph 4.0 mph 71% 0.00 in
09:49 79.4 °F 70.4 °F 30.11 in SE 5.0 mph 5.0 mph 74% 0.00 in
09:54 79.5 °F 68.4 °F 30.11 in SE 3.0 mph 5.0 mph 69% 0.00 in
09:59 79.9 °F 70.1 °F 30.11 in SE 3.0 mph 6.0 mph 72% 0.00 in
10:04 80.1 °F 69.9 °F 30.11 in SSW 3.0 mph 4.0 mph 71% 0.00 in
10:09 80.6 °F 70.3 °F 30.11 in SSE 4.0 mph 4.0 mph 71% 0.00 in
10:14 81.0 °F 70.3 °F 30.11 in SSE 5.0 mph 5.0 mph 70% 0.00 in
10:19 81.4 °F 69.4 °F 30.10 in WSW 2.0 mph 3.0 mph 67% 0.00 in
10:24 81.7 °F 71.0 °F 30.10 in SW 4.0 mph 4.0 mph 70% 0.00 in
10:29 81.6 °F 69.6 °F 30.11 in SSW 4.0 mph 5.0 mph 67% 0.00 in
10:34 81.6 °F 69.6 °F 30.10 in SSW 3.0 mph 4.0 mph 67% 0.00 in
10:39 82.0 °F 70.0 °F 30.10 in SW 2.0 mph 4.0 mph 67% 0.00 in
10:44 82.3 °F 69.8 °F 30.10 in West 3.0 mph 5.0 mph 66% 0.00 in
10:49 82.1 °F 70.9 °F 30.10 in WSW 3.0 mph 5.0 mph 69% 0.00 in
10:55 82.3 °F 71.1 °F 30.11 in WSW 2.0 mph 3.0 mph 69% 0.00 in
11:00 82.9 °F 69.9 °F 30.11 in SW 2.0 mph 3.0 mph 65% 0.00 in
11:05 83.3 °F 70.3 °F 30.11 in Calm   2.0 mph 65% 0.00 in
11:10 83.7 °F 69.8 °F 30.11 in West 1.0 mph 4.0 mph 63% 0.00 in
11:15 83.5 °F 69.6 °F 30.11 in WNW 2.0 mph 6.0 mph 63% 0.00 in
11:20 83.4 °F 69.0 °F 30.11 in NW 2.0 mph 4.0 mph 62% 0.00 in
11:25 83.5 °F 69.1 °F 30.11 in WNW 4.0 mph 4.0 mph 62% 0.00 in
11:30 83.5 °F 69.6 °F 30.11 in WNW 3.0 mph 5.0 mph 63% 0.00 in
11:35 83.5 °F 69.6 °F 30.11 in WSW 2.0 mph 4.0 mph 63% 0.00 in
11:40 84.0 °F 69.1 °F 30.11 in SW 3.0 mph 5.0 mph 61% 0.00 in
11:45 84.1 °F 69.2 °F 30.11 in SW 3.0 mph 6.0 mph 61% 0.00 in
11:46 84.2 °F 69.3 °F 30.11 in West 1.0 mph 6.0 mph 61% 0.00 in
11:51 84.3 °F 68.9 °F 30.11 in West 2.0 mph 4.0 mph 60% 0.00 in
11:56 84.2 °F 68.3 °F 30.11 in WNW 4.0 mph 7.0 mph 59% 0.00 in
12:01 84.0 °F 69.6 °F 30.11 in West 1.0 mph 6.0 mph 62% 0.00 in
12:06 84.3 °F 68.4 °F 30.11 in NW 5.0 mph 7.0 mph 59% 0.00 in
12:11 84.3 °F 67.9 °F 30.11 in NW 5.0 mph 8.0 mph 58% 0.00 in
12:16 84.2 °F 67.8 °F 30.11 in NW 5.0 mph 7.0 mph 58% 0.00 in
12:21 84.3 °F 69.4 °F 30.11 in Calm   4.0 mph 61% 0.00 in
12:26 84.8 °F 67.9 °F 30.11 in SSW 4.0 mph 7.0 mph 57% 0.00 in
12:31 85.0 °F 68.6 °F 30.11 in West 5.0 mph 10.0 mph 58% 0.00 in
12:36 85.1 °F 66.6 °F 30.10 in West 2.0 mph 4.0 mph 54% 0.00 in
12:42 85.4 °F 67.9 °F 30.10 in WSW 4.0 mph 6.0 mph 56% 0.00 in
12:47 85.4 °F 68.4 °F 30.10 in NNW 3.0 mph 6.0 mph 57% 0.00 in
12:52 85.6 °F 68.1 °F 30.11 in NNW 7.0 mph 7.0 mph 56% 0.00 in
12:57 85.1 °F 67.1 °F 30.11 in WNW 5.0 mph 9.0 mph 55% 0.00 in
13:02 85.2 °F 68.8 °F 30.11 in WSW 3.0 mph 7.0 mph 58% 0.00 in
13:07 85.6 °F 69.1 °F 30.10 in WNW 1.0 mph 7.0 mph 58% 0.00 in
13:12 85.7 °F 66.1 °F 30.10 in West 1.0 mph 5.0 mph 52% 0.00 in
13:17 86.1 °F 67.5 °F 30.11 in WNW 4.0 mph 6.0 mph 54% 0.00 in
13:22 86.1 °F 67.0 °F 30.11 in Calm   4.0 mph 53% 0.00 in
13:27 86.7 °F 65.9 °F 30.10 in SW 4.0 mph 5.0 mph 50% 0.00 in
13:32 86.7 °F 65.9 °F 30.10 in Calm   4.0 mph 50% 0.00 in
13:37 87.4 °F 67.1 °F 30.10 in SE 1.0 mph 2.0 mph 51% 0.00 in
13:42 87.9 °F 68.1 °F 30.10 in SW 3.0 mph 5.0 mph 52% 0.00 in
13:47 87.8 °F 65.7 °F 30.10 in SW 2.0 mph 6.0 mph 48% 0.00 in
13:52 87.9 °F 66.9 °F 30.10 in Calm   1.0 mph 50% 0.00 in
13:57 88.3 °F 67.3 °F 30.10 in SW 3.0 mph 5.0 mph 50% 0.00 in
14:03 88.2 °F 66.7 °F 30.09 in East 2.0 mph 3.0 mph 49% 0.00 in
14:08 87.4 °F 67.6 °F 30.09 in ENE 1.0 mph 8.0 mph 52% 0.00 in
14:13 87.7 °F 69.0 °F 30.09 in SW 4.0 mph 4.0 mph 54% 0.00 in
14:18 86.9 °F 68.8 °F 30.09 in NW 2.0 mph 3.0 mph 55% 0.00 in
14:23 86.6 °F 67.4 °F 30.09 in North 1.0 mph 3.0 mph 53% 0.00 in
14:28 86.9 °F 66.0 °F 30.09 in WSW 3.0 mph 6.0 mph 50% 0.00 in
14:33 87.1 °F 65.6 °F 30.08 in WSW 6.0 mph 7.0 mph 49% 0.00 in
14:38 87.0 °F 64.3 °F 30.08 in West 1.0 mph 4.0 mph 47% 0.00 in
14:43 87.2 °F 65.1 °F 30.08 in NW 4.0 mph 5.0 mph 48% 0.00 in
14:48 87.0 °F 63.7 °F 30.07 in NNW 3.0 mph 4.0 mph 46% 0.00 in
14:53 87.5 °F 68.3 °F 30.07 in Calm   3.0 mph 53% 0.00 in
14:58 88.6 °F 68.7 °F 30.07 in WSW 4.0 mph 5.0 mph 52% 0.00 in
15:03 88.4 °F 66.2 °F 30.06 in NNE 1.0 mph 6.0 mph 48% 0.00 in
15:08 88.3 °F 66.7 °F 30.06 in North 3.0 mph 5.0 mph 49% 0.00 in
15:13 88.0 °F 67.1 °F 30.06 in Calm   3.0 mph 50% 0.00 in
15:18 88.3 °F 66.7 °F 30.06 in SE 5.0 mph 6.0 mph 49% 0.00 in
15:23 88.4 °F 66.8 °F 30.06 in SSW 1.0 mph 5.0 mph 49% 0.00 in
15:28 88.7 °F 67.1 °F 30.06 in SW 1.0 mph 3.0 mph 49% 0.00 in
15:34 89.1 °F 68.1 °F 30.05 in WSW 2.0 mph 4.0 mph 50% 0.00 in
15:39 88.6 °F 65.8 °F 30.05 in WSW 4.0 mph 8.0 mph 47% 0.00 in
15:44 88.5 °F 68.1 °F 30.05 in WNW 4.0 mph 4.0 mph 51% 0.00 in
15:49 88.4 °F 67.4 °F 30.05 in NNE 2.0 mph 4.0 mph 50% 0.00 in
15:54 88.6 °F 67.6 °F 30.04 in SE 1.0 mph 1.0 mph 50% 0.00 in
15:59 89.4 °F 69.5 °F 30.04 in SW 2.0 mph 3.0 mph 52% 0.00 in
16:04 89.6 °F 67.3 °F 30.04 in SW 4.0 mph 8.0 mph 48% 0.00 in
16:09 88.9 °F 67.3 °F 30.04 in West 2.0 mph 6.0 mph 49% 0.00 in
16:14 88.8 °F 65.4 °F 30.03 in SSW 2.0 mph 7.0 mph 46% 0.00 in
16:19 89.0 °F 66.2 °F 30.03 in WSW 3.0 mph 4.0 mph 47% 0.00 in
16:24 89.0 °F 66.8 °F 30.03 in West 3.0 mph 4.0 mph 48% 0.00 in
16:29 88.8 °F 66.6 °F 30.03 in West 1.0 mph 7.0 mph 48% 0.00 in
16:34 88.5 °F 66.3 °F 30.03 in WNW 2.0 mph 5.0 mph 48% 0.00 in
16:39 88.5 °F 66.3 °F 30.03 in SSW 1.0 mph 4.0 mph 48% 0.00 in
16:44 88.9 °F 64.8 °F 30.03 in SW 4.0 mph 4.0 mph 45% 0.00 in
16:49 89.1 °F 66.3 °F 30.03 in WSW 1.0 mph 4.0 mph 47% 0.00 in
16:54 89.4 °F 66.5 °F 30.03 in West 5.0 mph 8.0 mph 47% 0.00 in
16:59 89.2 °F 68.2 °F 30.03 in West 1.0 mph 2.0 mph 50% 0.00 in
17:04 89.3 °F 67.1 °F 30.02 in SSE 1.0 mph 3.0 mph 48% 0.00 in
17:09 89.5 °F 66.0 °F 30.02 in WSW 2.0 mph 5.0 mph 46% 0.00 in
17:14 89.2 °F 64.5 °F 30.02 in South 1.0 mph 4.0 mph 44% 0.00 in
17:19 90.0 °F 64.5 °F 30.02 in ESE 2.0 mph 2.0 mph 43% 0.00 in
17:24 90.1 °F 64.6 °F 30.02 in SSE 2.0 mph 4.0 mph 43% 0.00 in
17:29 90.0 °F 65.2 °F 30.02 in SSE 3.0 mph 3.0 mph 44% 0.00 in
17:34 90.1 °F 65.3 °F 30.02 in SW 4.0 mph 4.0 mph 44% 0.00 in
17:39 89.5 °F 64.7 °F 30.02 in WSW 1.0 mph 4.0 mph 44% 0.00 in
17:44 89.4 °F 64.6 °F 30.02 in Calm   2.0 mph 44% 0.00 in
17:49 89.7 °F 66.8 °F 30.01 in SW 3.0 mph 4.0 mph 47% 0.00 in
17:54 89.4 °F 65.9 °F 30.01 in SSW 2.0 mph 4.0 mph 46% 0.00 in
17:59 89.3 °F 65.8 °F 30.01 in West 1.0 mph 3.0 mph 46% 0.00 in
18:04 89.5 °F 66.6 °F 30.01 in WSW 1.0 mph 2.0 mph 47% 0.00 in
18:09 89.8 °F 67.5 °F 30.01 in SW 4.0 mph 4.0 mph 48% 0.00 in
18:14 89.5 °F 66.6 °F 30.01 in SW 3.0 mph 4.0 mph 47% 0.00 in
18:19 89.4 °F 66.5 °F 30.01 in SSW 2.0 mph 3.0 mph 47% 0.00 in
18:24 89.1 °F 65.0 °F 30.01 in SSW 2.0 mph 3.0 mph 45% 0.00 in
18:29 89.2 °F 66.3 °F 30.01 in SW 2.0 mph 2.0 mph 47% 0.00 in
18:34 89.2 °F 67.0 °F 30.01 in West 2.0 mph 2.0 mph 48% 0.00 in
18:39 89.0 °F 67.4 °F 30.01 in SW 2.0 mph 2.0 mph 49% 0.00 in
18:45 88.8 °F 65.4 °F 30.01 in SW 1.0 mph 3.0 mph 46% 0.00 in
18:50 88.7 °F 66.5 °F 30.01 in SSW 1.0 mph 2.0 mph 48% 0.00 in
18:55 88.7 °F 67.1 °F 30.01 in SW 2.0 mph 2.0 mph 49% 0.00 in
19:00 88.6 °F 67.0 °F 30.01 in WSW 1.0 mph 2.0 mph 49% 0.00 in
19:05 88.4 °F 66.2 °F 30.01 in Calm   2.0 mph 48% 0.00 in
19:10 88.6 °F 67.6 °F 30.00 in SW 1.0 mph 1.0 mph 50% 0.00 in
19:15 88.3 °F 67.3 °F 30.01 in SW 1.0 mph 1.0 mph 50% 0.00 in
19:20 88.4 °F 68.0 °F 30.00 in WSW 1.0 mph 1.0 mph 51% 0.00 in
19:25 88.5 °F 70.8 °F 30.01 in Calm   1.0 mph 56% 0.00 in
19:30 88.3 °F 69.6 °F 30.00 in Calm   1.0 mph 54% 0.00 in
19:35 88.0 °F 70.3 °F 30.00 in WSW 1.0 mph 1.0 mph 56% 0.00 in
19:40 87.7 °F 71.1 °F 30.01 in Calm     58% 0.00 in
19:45 87.5 °F 68.8 °F 30.00 in Calm     54% 0.00 in
19:50 87.6 °F 71.5 °F 30.01 in Calm     59% 0.00 in
19:56 87.4 °F 70.8 °F 30.00 in Calm     58% 0.00 in
20:01 87.2 °F 70.6 °F 30.00 in Calm     58% 0.00 in
20:06 87.1 °F 70.0 °F 30.00 in Calm     57% 0.00 in
20:11 87.3 °F 71.7 °F 30.00 in Calm     60% 0.00 in
20:16 87.2 °F 71.6 °F 30.00 in Calm     60% 0.00 in
20:21 86.2 °F 71.7 °F 30.00 in Calm     62% 0.00 in
20:26 85.0 °F 70.5 °F 30.00 in Calm   1.0 mph 62% 0.00 in
20:31 84.5 °F 70.1 °F 30.01 in Calm     62% 0.00 in
20:36 84.0 °F 73.2 °F 30.00 in Calm     70% 0.00 in
20:41 82.7 °F 70.2 °F 30.00 in Calm     66% 0.00 in
20:46 81.7 °F 71.4 °F 30.00 in Calm     71% 0.00 in
20:51 80.7 °F 69.6 °F 30.00 in Calm     69% 0.00 in
20:56 79.7 °F 69.5 °F 30.01 in Calm     71% 0.00 in
21:01 79.0 °F 69.6 °F 30.01 in Calm     73% 0.00 in
21:06 79.0 °F 68.8 °F 30.01 in Calm     71% 0.00 in
21:11 78.8 °F 69.4 °F 30.00 in Calm     73% 0.00 in
21:16 78.1 °F 69.1 °F 30.00 in Calm     74% 0.00 in
21:21 77.2 °F 69.1 °F 30.00 in Calm     76% 0.00 in
21:26 76.8 °F 68.3 °F 30.00 in Calm     75% 0.00 in
21:32 76.6 °F 68.1 °F 30.00 in Calm     75% 0.00 in
21:37 76.7 °F 68.2 °F 30.00 in Calm     75% 0.00 in
21:42 76.3 °F 69.7 °F 30.00 in Calm     80% 0.00 in
21:47 75.6 °F 69.7 °F 30.00 in Calm     82% 0.00 in
21:52 75.3 °F 69.4 °F 30.01 in Calm   1.0 mph 82% 0.00 in
21:57 75.3 °F 68.7 °F 30.01 in Calm     80% 0.00 in
22:02 75.1 °F 68.9 °F 30.01 in Calm     81% 0.00 in
22:07 74.6 °F 68.8 °F 30.01 in Calm     82% 0.00 in
22:12 74.2 °F 69.1 °F 30.01 in Calm     84% 0.00 in
22:17 73.9 °F 69.1 °F 30.01 in Calm     85% 0.00 in
22:22 73.8 °F 68.7 °F 30.01 in Calm     84% 0.00 in
22:27 73.5 °F 68.4 °F 30.01 in Calm     84% 0.00 in
22:32 73.3 °F 68.2 °F 30.01 in Calm     84% 0.00 in
22:37 73.1 °F 67.6 °F 30.02 in Calm     83% 0.00 in
22:42 73.0 °F 67.5 °F 30.01 in Calm     83% 0.00 in
22:47 72.8 °F 67.3 °F 30.02 in Calm     83% 0.00 in
22:52 72.5 °F 67.1 °F 30.02 in Calm     83% 0.00 in
22:57 72.2 °F 66.4 °F 30.02 in Calm     82% 0.00 in
23:03 72.2 °F 66.4 °F 30.02 in Calm     82% 0.00 in
23:08 72.2 °F 66.1 °F 30.02 in Calm     81% 0.00 in
23:13 71.9 °F 65.8 °F 30.02 in Calm     81% 0.00 in
23:18 71.6 °F 65.8 °F 30.02 in Calm     82% 0.00 in
23:23 71.2 °F 65.8 °F 30.02 in Calm     83% 0.00 in
23:28 70.7 °F 65.6 °F 30.02 in Calm     84% 0.00 in
23:33 70.2 °F 65.5 °F 30.02 in Calm     85% 0.00 in
23:38 70.5 °F 66.4 °F 30.02 in Calm     87% 0.00 in
23:43 70.8 °F 67.1 °F 30.02 in Calm     88% 0.00 in
23:48 70.9 °F 67.2 °F 30.02 in Calm     88% 0.00 in
23:53 70.7 °F 67.3 °F 30.02 in Calm     89% 0.00 in
23:58 70.5 °F 67.1 °F 30.02 in Calm     89% 0.00 in
Compliments of Weather Underground